Weather at Sibu Airport

Public forecast

Using degrees Celsius for public forecast. Weather courtesy of forecast.io.

Current aviation weather report (METAR) for Sibu Airport

Retrieved 2021/01/21 13:00 UTC (41 minutes ago):

WBGS 211300Z VRB02KT 8000 -RA SCT016 25/24 Q1011

Aviation forecast (TAF) for Sibu Airport

Retrieved 2021/01/21 12:00 UTC (2 hours ago):

TAF WBGS 211100Z 2112/2212 VRB03KT 9999 SCT016 TEMPO 2112/2116 7000 RA FEW005